sensor_id;sensor_type;location;lat;lon;timestamp;P1;durP1;ratioP1;P2;durP2;ratioP2
44438;SDS011;30145;48.874;10.186;2023-06-22T00:01:21;8.20;;;5.70;;
44438;SDS011;30145;48.874;10.186;2023-06-22T00:03:51;8.00;;;6.87;;
44438;SDS011;30145;48.874;10.186;2023-06-22T00:06:18;8.77;;;7.77;;
44438;SDS011;30145;48.874;10.186;2023-06-22T00:08:45;9.47;;;6.67;;
44438;SDS011;30145;48.874;10.186;2023-06-22T00:11:13;7.97;;;6.73;;
44438;SDS011;30145;48.874;10.186;2023-06-22T00:13:40;9.67;;;6.87;;
44438;SDS011;30145;48.874;10.186;2023-06-22T00:16:07;7.60;;;6.80;;
44438;SDS011;30145;48.874;10.186;2023-06-22T00:18:34;10.43;;;6.20;;
44438;SDS011;30145;48.874;10.186;2023-06-22T00:21:01;7.83;;;6.03;;
44438;SDS011;30145;48.874;10.186;2023-06-22T00:23:28;9.90;;;6.77;;
44438;SDS011;30145;48.874;10.186;2023-06-22T00:26:00;9.50;;;7.40;;
44438;SDS011;30145;48.874;10.186;2023-06-22T00:28:27;11.33;;;7.33;;
44438;SDS011;30145;48.874;10.186;2023-06-22T00:30:55;6.70;;;5.93;;
44438;SDS011;30145;48.874;10.186;2023-06-22T00:33:22;7.70;;;6.60;;
44438;SDS011;30145;48.874;10.186;2023-06-22T00:35:49;10.07;;;6.40;;
44438;SDS011;30145;48.874;10.186;2023-06-22T00:38:19;6.90;;;6.20;;
44438;SDS011;30145;48.874;10.186;2023-06-22T00:40:47;10.47;;;6.73;;
44438;SDS011;30145;48.874;10.186;2023-06-22T00:43:14;9.40;;;6.97;;
44438;SDS011;30145;48.874;10.186;2023-06-22T00:45:41;8.37;;;6.40;;
44438;SDS011;30145;48.874;10.186;2023-06-22T00:48:08;12.33;;;6.27;;
44438;SDS011;30145;48.874;10.186;2023-06-22T00:50:35;8.40;;;6.40;;
44438;SDS011;30145;48.874;10.186;2023-06-22T00:53:06;7.07;;;6.03;;
44438;SDS011;30145;48.874;10.186;2023-06-22T00:55:38;6.57;;;5.73;;
44438;SDS011;30145;48.874;10.186;2023-06-22T00:58:18;8.17;;;5.70;;
44438;SDS011;30145;48.874;10.186;2023-06-22T01:00:48;7.27;;;5.73;;
44438;SDS011;30145;48.874;10.186;2023-06-22T01:03:15;10.67;;;6.50;;
44438;SDS011;30145;48.874;10.186;2023-06-22T01:05:43;7.90;;;5.40;;
44438;SDS011;30145;48.874;10.186;2023-06-22T01:08:19;12.53;;;7.73;;
44438;SDS011;30145;48.874;10.186;2023-06-22T01:11:30;8.73;;;7.00;;
44438;SDS011;30145;48.874;10.186;2023-06-22T01:14:02;12.57;;;7.53;;
44438;SDS011;30145;48.874;10.186;2023-06-22T01:16:33;9.90;;;7.27;;
44438;SDS011;30145;48.874;10.186;2023-06-22T01:19:02;10.87;;;8.27;;
44438;SDS011;30145;48.874;10.186;2023-06-22T01:21:55;12.77;;;7.77;;
44438;SDS011;30145;48.874;10.186;2023-06-22T01:24:24;10.27;;;8.50;;
44438;SDS011;30145;48.874;10.186;2023-06-22T01:29:25;14.03;;;8.80;;
44438;SDS011;30145;48.874;10.186;2023-06-22T01:31:54;9.27;;;7.40;;
44438;SDS011;30145;48.874;10.186;2023-06-22T01:34:21;13.53;;;8.67;;
44438;SDS011;30145;48.874;10.186;2023-06-22T01:36:48;11.57;;;8.30;;
44438;SDS011;30145;48.874;10.186;2023-06-22T01:39:16;12.10;;;7.70;;
44438;SDS011;30145;48.874;10.186;2023-06-22T01:41:43;10.63;;;8.47;;
44438;SDS011;30145;48.874;10.186;2023-06-22T01:44:12;11.37;;;8.60;;
44438;SDS011;30145;48.874;10.186;2023-06-22T01:46:39;11.77;;;8.83;;
44438;SDS011;30145;48.874;10.186;2023-06-22T01:49:07;10.40;;;8.20;;
44438;SDS011;30145;48.874;10.186;2023-06-22T01:51:34;10.37;;;7.83;;
44438;SDS011;30145;48.874;10.186;2023-06-22T01:54:01;12.63;;;9.07;;
44438;SDS011;30145;48.874;10.186;2023-06-22T01:56:28;8.70;;;7.17;;
44438;SDS011;30145;48.874;10.186;2023-06-22T02:01:41;11.57;;;7.77;;
44438;SDS011;30145;48.874;10.186;2023-06-22T02:04:16;12.53;;;9.30;;
44438;SDS011;30145;48.874;10.186;2023-06-22T02:06:51;12.63;;;8.07;;
44438;SDS011;30145;48.874;10.186;2023-06-22T02:09:21;14.73;;;8.10;;
44438;SDS011;30145;48.874;10.186;2023-06-22T02:11:50;11.47;;;8.47;;
44438;SDS011;30145;48.874;10.186;2023-06-22T02:14:20;9.30;;;7.90;;
44438;SDS011;30145;48.874;10.186;2023-06-22T02:16:48;12.40;;;8.70;;
44438;SDS011;30145;48.874;10.186;2023-06-22T02:19:15;16.00;;;10.73;;
44438;SDS011;30145;48.874;10.186;2023-06-22T02:21:42;13.40;;;9.73;;
44438;SDS011;30145;48.874;10.186;2023-06-22T02:24:09;14.53;;;11.40;;
44438;SDS011;30145;48.874;10.186;2023-06-22T02:26:36;12.03;;;10.47;;
44438;SDS011;30145;48.874;10.186;2023-06-22T02:29:05;12.77;;;9.90;;
44438;SDS011;30145;48.874;10.186;2023-06-22T02:31:32;11.17;;;8.60;;
44438;SDS011;30145;48.874;10.186;2023-06-22T02:33:59;12.73;;;8.70;;
44438;SDS011;30145;48.874;10.186;2023-06-22T02:36:26;11.50;;;9.07;;
44438;SDS011;30145;48.874;10.186;2023-06-22T02:38:54;12.33;;;9.30;;
44438;SDS011;30145;48.874;10.186;2023-06-22T02:41:24;11.47;;;8.43;;
44438;SDS011;30145;48.874;10.186;2023-06-22T02:43:54;12.07;;;8.67;;
44438;SDS011;30145;48.874;10.186;2023-06-22T02:46:21;11.43;;;8.43;;
44438;SDS011;30145;48.874;10.186;2023-06-22T02:48:48;11.93;;;9.10;;
44438;SDS011;30145;48.874;10.186;2023-06-22T02:51:15;9.27;;;7.67;;
44438;SDS011;30145;48.874;10.186;2023-06-22T02:53:42;12.23;;;9.50;;
44438;SDS011;30145;48.874;10.186;2023-06-22T02:56:11;12.13;;;9.20;;
44438;SDS011;30145;48.874;10.186;2023-06-22T02:58:39;12.87;;;8.53;;
44438;SDS011;30145;48.874;10.186;2023-06-22T03:01:06;10.30;;;8.07;;
44438;SDS011;30145;48.874;10.186;2023-06-22T03:03:33;12.17;;;7.97;;
44438;SDS011;30145;48.874;10.186;2023-06-22T03:06:01;10.93;;;8.03;;
44438;SDS011;30145;48.874;10.186;2023-06-22T03:08:28;10.70;;;8.93;;
44438;SDS011;30145;48.874;10.186;2023-06-22T03:10:56;13.37;;;8.50;;
44438;SDS011;30145;48.874;10.186;2023-06-22T03:13:23;12.27;;;8.37;;
44438;SDS011;30145;48.874;10.186;2023-06-22T03:15:50;13.23;;;9.33;;
44438;SDS011;30145;48.874;10.186;2023-06-22T03:18:18;11.00;;;7.53;;
44438;SDS011;30145;48.874;10.186;2023-06-22T03:20:45;11.03;;;7.60;;
44438;SDS011;30145;48.874;10.186;2023-06-22T03:23:12;12.67;;;10.50;;
44438;SDS011;30145;48.874;10.186;2023-06-22T03:25:39;11.53;;;9.37;;
44438;SDS011;30145;48.874;10.186;2023-06-22T03:28:07;13.33;;;10.07;;
44438;SDS011;30145;48.874;10.186;2023-06-22T03:30:34;12.23;;;9.13;;
44438;SDS011;30145;48.874;10.186;2023-06-22T03:33:01;17.17;;;11.03;;
44438;SDS011;30145;48.874;10.186;2023-06-22T03:35:28;13.00;;;10.13;;
44438;SDS011;30145;48.874;10.186;2023-06-22T03:37:55;14.67;;;10.60;;
44438;SDS011;30145;48.874;10.186;2023-06-22T03:40:22;14.73;;;11.03;;
44438;SDS011;30145;48.874;10.186;2023-06-22T03:42:49;15.33;;;11.30;;
44438;SDS011;30145;48.874;10.186;2023-06-22T03:45:16;14.73;;;10.60;;
44438;SDS011;30145;48.874;10.186;2023-06-22T03:47:43;16.47;;;12.43;;
44438;SDS011;30145;48.874;10.186;2023-06-22T03:50:10;15.47;;;10.97;;
44438;SDS011;30145;48.874;10.186;2023-06-22T03:52:37;17.13;;;11.70;;
44438;SDS011;30145;48.874;10.186;2023-06-22T03:55:04;14.00;;;10.93;;
44438;SDS011;30145;48.874;10.186;2023-06-22T03:57:32;16.53;;;11.10;;
44438;SDS011;30145;48.874;10.186;2023-06-22T04:00:00;13.77;;;10.90;;
44438;SDS011;30145;48.874;10.186;2023-06-22T04:02:27;11.87;;;9.23;;
44438;SDS011;30145;48.874;10.186;2023-06-22T04:04:54;12.20;;;9.90;;
44438;SDS011;30145;48.874;10.186;2023-06-22T04:07:22;14.63;;;10.77;;
44438;SDS011;30145;48.874;10.186;2023-06-22T04:09:49;11.33;;;9.90;;
44438;SDS011;30145;48.874;10.186;2023-06-22T04:12:16;15.80;;;10.63;;
44438;SDS011;30145;48.874;10.186;2023-06-22T04:14:43;11.93;;;10.30;;
44438;SDS011;30145;48.874;10.186;2023-06-22T04:17:10;12.80;;;10.00;;
44438;SDS011;30145;48.874;10.186;2023-06-22T04:19:40;11.83;;;9.60;;
44438;SDS011;30145;48.874;10.186;2023-06-22T04:22:07;11.83;;;9.03;;
44438;SDS011;30145;48.874;10.186;2023-06-22T04:24:34;11.20;;;9.10;;
44438;SDS011;30145;48.874;10.186;2023-06-22T04:27:01;12.63;;;9.13;;
44438;SDS011;30145;48.874;10.186;2023-06-22T04:29:29;11.83;;;9.63;;
44438;SDS011;30145;48.874;10.186;2023-06-22T04:31:56;11.60;;;9.40;;
44438;SDS011;30145;48.874;10.186;2023-06-22T04:34:25;8.07;;;7.17;;
44438;SDS011;30145;48.874;10.186;2023-06-22T04:36:55;10.50;;;8.50;;
44438;SDS011;30145;48.874;10.186;2023-06-22T04:39:22;10.17;;;8.83;;
44438;SDS011;30145;48.874;10.186;2023-06-22T04:41:49;10.60;;;8.40;;
44438;SDS011;30145;48.874;10.186;2023-06-22T04:44:18;10.50;;;8.60;;
44438;SDS011;30145;48.874;10.186;2023-06-22T04:46:52;12.30;;;8.83;;
44438;SDS011;30145;48.874;10.186;2023-06-22T04:49:36;13.63;;;9.00;;
44438;SDS011;30145;48.874;10.186;2023-06-22T04:52:04;11.07;;;9.03;;
44438;SDS011;30145;48.874;10.186;2023-06-22T04:54:33;10.40;;;8.53;;
44438;SDS011;30145;48.874;10.186;2023-06-22T04:57:05;9.63;;;8.73;;
44438;SDS011;30145;48.874;10.186;2023-06-22T04:59:37;12.07;;;8.80;;
44438;SDS011;30145;48.874;10.186;2023-06-22T05:02:05;10.97;;;9.40;;
44438;SDS011;30145;48.874;10.186;2023-06-22T05:04:32;14.00;;;10.07;;
44438;SDS011;30145;48.874;10.186;2023-06-22T05:07:02;13.00;;;9.17;;
44438;SDS011;30145;48.874;10.186;2023-06-22T05:09:29;13.57;;;10.67;;
44438;SDS011;30145;48.874;10.186;2023-06-22T05:11:56;12.63;;;9.80;;
44438;SDS011;30145;48.874;10.186;2023-06-22T05:14:23;12.93;;;9.60;;
44438;SDS011;30145;48.874;10.186;2023-06-22T05:16:50;12.70;;;9.67;;
44438;SDS011;30145;48.874;10.186;2023-06-22T05:19:18;13.67;;;10.00;;
44438;SDS011;30145;48.874;10.186;2023-06-22T05:21:45;11.70;;;10.03;;
44438;SDS011;30145;48.874;10.186;2023-06-22T05:24:12;13.70;;;10.13;;
44438;SDS011;30145;48.874;10.186;2023-06-22T05:26:39;12.07;;;10.83;;
44438;SDS011;30145;48.874;10.186;2023-06-22T05:29:06;15.27;;;9.80;;
44438;SDS011;30145;48.874;10.186;2023-06-22T05:31:34;14.23;;;10.77;;
44438;SDS011;30145;48.874;10.186;2023-06-22T05:34:01;14.23;;;9.67;;
44438;SDS011;30145;48.874;10.186;2023-06-22T05:36:28;14.07;;;9.90;;
44438;SDS011;30145;48.874;10.186;2023-06-22T05:38:56;13.40;;;10.03;;
44438;SDS011;30145;48.874;10.186;2023-06-22T05:41:24;12.47;;;9.53;;
44438;SDS011;30145;48.874;10.186;2023-06-22T05:43:51;11.63;;;9.33;;
44438;SDS011;30145;48.874;10.186;2023-06-22T05:46:18;12.47;;;9.27;;
44438;SDS011;30145;48.874;10.186;2023-06-22T05:48:46;10.67;;;8.60;;
44438;SDS011;30145;48.874;10.186;2023-06-22T05:51:13;13.23;;;8.60;;
44438;SDS011;30145;48.874;10.186;2023-06-22T05:53:40;10.43;;;8.27;;
44438;SDS011;30145;48.874;10.186;2023-06-22T05:56:07;11.93;;;8.70;;
44438;SDS011;30145;48.874;10.186;2023-06-22T05:58:35;11.87;;;9.00;;
44438;SDS011;30145;48.874;10.186;2023-06-22T06:01:02;12.07;;;9.03;;
44438;SDS011;30145;48.874;10.186;2023-06-22T06:03:29;9.00;;;8.10;;
44438;SDS011;30145;48.874;10.186;2023-06-22T06:05:56;11.70;;;8.50;;
44438;SDS011;30145;48.874;10.186;2023-06-22T06:08:23;11.33;;;8.47;;
44438;SDS011;30145;48.874;10.186;2023-06-22T06:10:50;11.63;;;8.80;;
44438;SDS011;30145;48.874;10.186;2023-06-22T06:13:19;10.33;;;8.30;;
44438;SDS011;30145;48.874;10.186;2023-06-22T06:15:46;11.00;;;7.80;;
44438;SDS011;30145;48.874;10.186;2023-06-22T06:18:14;9.47;;;8.30;;
44438;SDS011;30145;48.874;10.186;2023-06-22T06:20:41;8.93;;;7.47;;
44438;SDS011;30145;48.874;10.186;2023-06-22T06:23:08;15.20;;;8.47;;
44438;SDS011;30145;48.874;10.186;2023-06-22T06:25:35;8.53;;;7.60;;
44438;SDS011;30145;48.874;10.186;2023-06-22T06:28:02;9.20;;;7.87;;
44438;SDS011;30145;48.874;10.186;2023-06-22T06:30:30;9.23;;;7.30;;
44438;SDS011;30145;48.874;10.186;2023-06-22T06:32:57;12.20;;;7.60;;
44438;SDS011;30145;48.874;10.186;2023-06-22T06:35:24;8.53;;;6.83;;
44438;SDS011;30145;48.874;10.186;2023-06-22T06:37:51;10.73;;;7.70;;
44438;SDS011;30145;48.874;10.186;2023-06-22T06:40:18;9.33;;;6.63;;
44438;SDS011;30145;48.874;10.186;2023-06-22T06:42:46;12.07;;;8.03;;
44438;SDS011;30145;48.874;10.186;2023-06-22T06:45:20;9.97;;;6.93;;
44438;SDS011;30145;48.874;10.186;2023-06-22T06:47:52;9.80;;;6.83;;
44438;SDS011;30145;48.874;10.186;2023-06-22T06:50:19;11.67;;;7.17;;
44438;SDS011;30145;48.874;10.186;2023-06-22T06:52:46;8.50;;;7.03;;
44438;SDS011;30145;48.874;10.186;2023-06-22T06:55:13;8.13;;;7.27;;
44438;SDS011;30145;48.874;10.186;2023-06-22T06:57:41;7.73;;;6.83;;
44438;SDS011;30145;48.874;10.186;2023-06-22T07:00:10;7.77;;;6.27;;
44438;SDS011;30145;48.874;10.186;2023-06-22T07:02:40;8.63;;;5.77;;
44438;SDS011;30145;48.874;10.186;2023-06-22T07:05:08;8.23;;;6.70;;
44438;SDS011;30145;48.874;10.186;2023-06-22T07:07:36;9.10;;;6.40;;
44438;SDS011;30145;48.874;10.186;2023-06-22T07:10:04;6.77;;;5.43;;
44438;SDS011;30145;48.874;10.186;2023-06-22T07:12:32;9.50;;;6.10;;
44438;SDS011;30145;48.874;10.186;2023-06-22T07:15:05;10.30;;;6.67;;
44438;SDS011;30145;48.874;10.186;2023-06-22T07:17:36;9.93;;;5.70;;
44438;SDS011;30145;48.874;10.186;2023-06-22T07:20:04;7.47;;;5.50;;
44438;SDS011;30145;48.874;10.186;2023-06-22T07:22:39;9.67;;;5.83;;
44438;SDS011;30145;48.874;10.186;2023-06-22T07:25:06;8.37;;;5.67;;
44438;SDS011;30145;48.874;10.186;2023-06-22T07:27:37;7.90;;;4.70;;
44438;SDS011;30145;48.874;10.186;2023-06-22T07:30:06;6.17;;;4.67;;
44438;SDS011;30145;48.874;10.186;2023-06-22T07:32:34;7.07;;;5.43;;
44438;SDS011;30145;48.874;10.186;2023-06-22T07:35:02;7.70;;;5.10;;
44438;SDS011;30145;48.874;10.186;2023-06-22T07:37:29;7.13;;;4.70;;
44438;SDS011;30145;48.874;10.186;2023-06-22T07:39:57;6.23;;;4.97;;
44438;SDS011;30145;48.874;10.186;2023-06-22T07:42:27;6.00;;;5.27;;
44438;SDS011;30145;48.874;10.186;2023-06-22T07:44:59;6.73;;;5.10;;
44438;SDS011;30145;48.874;10.186;2023-06-22T07:47:26;6.27;;;4.40;;
44438;SDS011;30145;48.874;10.186;2023-06-22T07:49:55;7.23;;;4.47;;
44438;SDS011;30145;48.874;10.186;2023-06-22T07:52:24;7.00;;;4.60;;
44438;SDS011;30145;48.874;10.186;2023-06-22T07:54:52;6.53;;;4.77;;
44438;SDS011;30145;48.874;10.186;2023-06-22T07:57:20;6.27;;;4.23;;
44438;SDS011;30145;48.874;10.186;2023-06-22T07:59:47;8.73;;;4.87;;
44438;SDS011;30145;48.874;10.186;2023-06-22T08:02:14;9.60;;;4.57;;
44438;SDS011;30145;48.874;10.186;2023-06-22T08:04:41;6.37;;;4.40;;
44438;SDS011;30145;48.874;10.186;2023-06-22T08:07:08;8.17;;;4.63;;
44438;SDS011;30145;48.874;10.186;2023-06-22T08:09:36;6.40;;;4.40;;
44438;SDS011;30145;48.874;10.186;2023-06-22T08:12:03;7.87;;;4.57;;
44438;SDS011;30145;48.874;10.186;2023-06-22T08:14:31;6.68;;;4.30;;
44438;SDS011;30145;48.874;10.186;2023-06-22T08:16:58;7.73;;;4.30;;
44438;SDS011;30145;48.874;10.186;2023-06-22T08:19:25;7.90;;;4.53;;
44438;SDS011;30145;48.874;10.186;2023-06-22T08:21:52;8.87;;;4.47;;
44438;SDS011;30145;48.874;10.186;2023-06-22T08:24:19;9.07;;;4.77;;
44438;SDS011;30145;48.874;10.186;2023-06-22T08:26:46;8.00;;;3.78;;
44438;SDS011;30145;48.874;10.186;2023-06-22T08:29:13;9.33;;;4.40;;
44438;SDS011;30145;48.874;10.186;2023-06-22T08:31:41;10.27;;;4.23;;
44438;SDS011;30145;48.874;10.186;2023-06-22T08:34:08;6.90;;;4.18;;
44438;SDS011;30145;48.874;10.186;2023-06-22T08:36:35;6.60;;;4.47;;
44438;SDS011;30145;48.874;10.186;2023-06-22T08:39:04;12.05;;;4.43;;
44438;SDS011;30145;48.874;10.186;2023-06-22T08:41:31;8.60;;;4.15;;
44438;SDS011;30145;48.874;10.186;2023-06-22T08:43:58;10.15;;;4.20;;
44438;SDS011;30145;48.874;10.186;2023-06-22T08:46:25;10.25;;;4.40;;
44438;SDS011;30145;48.874;10.186;2023-06-22T08:48:56;5.75;;;4.20;;
44438;SDS011;30145;48.874;10.186;2023-06-22T08:51:24;6.95;;;4.03;;
44438;SDS011;30145;48.874;10.186;2023-06-22T08:53:51;9.85;;;4.55;;
44438;SDS011;30145;48.874;10.186;2023-06-22T08:56:18;8.45;;;4.85;;
44438;SDS011;30145;48.874;10.186;2023-06-22T08:58:45;8.45;;;4.60;;
44438;SDS011;30145;48.874;10.186;2023-06-22T09:01:12;6.60;;;4.68;;
44438;SDS011;30145;48.874;10.186;2023-06-22T09:03:41;10.68;;;5.18;;
44438;SDS011;30145;48.874;10.186;2023-06-22T09:06:09;10.52;;;5.32;;
44438;SDS011;30145;48.874;10.186;2023-06-22T09:08:36;8.32;;;4.53;;
44438;SDS011;30145;48.874;10.186;2023-06-22T09:11:03;7.40;;;4.10;;
44438;SDS011;30145;48.874;10.186;2023-06-22T09:13:31;8.73;;;4.93;;
44438;SDS011;30145;48.874;10.186;2023-06-22T09:15:58;10.00;;;4.43;;
44438;SDS011;30145;48.874;10.186;2023-06-22T09:18:26;8.15;;;4.57;;
44438;SDS011;30145;48.874;10.186;2023-06-22T09:20:53;6.38;;;3.90;;
44438;SDS011;30145;48.874;10.186;2023-06-22T09:23:20;9.95;;;4.85;;
44438;SDS011;30145;48.874;10.186;2023-06-22T09:25:47;10.85;;;4.57;;
44438;SDS011;30145;48.874;10.186;2023-06-22T09:28:14;11.43;;;4.82;;
44438;SDS011;30145;48.874;10.186;2023-06-22T09:30:44;9.20;;;4.28;;
44438;SDS011;30145;48.874;10.186;2023-06-22T09:33:12;10.48;;;4.50;;
44438;SDS011;30145;48.874;10.186;2023-06-22T09:35:39;9.27;;;4.55;;
44438;SDS011;30145;48.874;10.186;2023-06-22T09:38:06;10.63;;;4.85;;
44438;SDS011;30145;48.874;10.186;2023-06-22T09:40:33;8.95;;;5.32;;
44438;SDS011;30145;48.874;10.186;2023-06-22T09:43:02;9.32;;;4.90;;
44438;SDS011;30145;48.874;10.186;2023-06-22T09:45:29;8.38;;;4.88;;
44438;SDS011;30145;48.874;10.186;2023-06-22T09:47:56;7.65;;;4.72;;
44438;SDS011;30145;48.874;10.186;2023-06-22T09:50:23;6.55;;;4.53;;
44438;SDS011;30145;48.874;10.186;2023-06-22T09:52:50;9.30;;;4.70;;
44438;SDS011;30145;48.874;10.186;2023-06-22T09:55:21;11.10;;;4.18;;
44438;SDS011;30145;48.874;10.186;2023-06-22T09:57:49;7.90;;;4.55;;
44438;SDS011;30145;48.874;10.186;2023-06-22T10:00:16;8.77;;;4.82;;
44438;SDS011;30145;48.874;10.186;2023-06-22T10:02:46;9.07;;;4.90;;
44438;SDS011;30145;48.874;10.186;2023-06-22T10:05:13;12.65;;;4.82;;
44438;SDS011;30145;48.874;10.186;2023-06-22T10:07:40;8.35;;;4.60;;
44438;SDS011;30145;48.874;10.186;2023-06-22T10:10:10;9.93;;;5.40;;
44438;SDS011;30145;48.874;10.186;2023-06-22T10:12:57;10.68;;;5.18;;
44438;SDS011;30145;48.874;10.186;2023-06-22T10:15:24;10.77;;;5.90;;
44438;SDS011;30145;48.874;10.186;2023-06-22T10:17:53;9.90;;;5.32;;
44438;SDS011;30145;48.874;10.186;2023-06-22T10:20:20;10.98;;;5.20;;
44438;SDS011;30145;48.874;10.186;2023-06-22T10:22:48;12.13;;;5.85;;
44438;SDS011;30145;48.874;10.186;2023-06-22T10:25:16;11.13;;;4.90;;
44438;SDS011;30145;48.874;10.186;2023-06-22T10:27:43;12.15;;;5.45;;
44438;SDS011;30145;48.874;10.186;2023-06-22T10:30:11;10.30;;;5.35;;
44438;SDS011;30145;48.874;10.186;2023-06-22T10:32:40;10.50;;;5.55;;
44438;SDS011;30145;48.874;10.186;2023-06-22T10:35:11;12.18;;;5.95;;
44438;SDS011;30145;48.874;10.186;2023-06-22T10:37:40;8.23;;;5.38;;
44438;SDS011;30145;48.874;10.186;2023-06-22T10:40:10;10.90;;;5.78;;
44438;SDS011;30145;48.874;10.186;2023-06-22T10:42:40;11.52;;;5.15;;
44438;SDS011;30145;48.874;10.186;2023-06-22T10:45:08;11.13;;;5.40;;
44438;SDS011;30145;48.874;10.186;2023-06-22T10:47:35;8.60;;;4.85;;
44438;SDS011;30145;48.874;10.186;2023-06-22T10:50:03;14.18;;;5.78;;
44438;SDS011;30145;48.874;10.186;2023-06-22T10:52:30;8.00;;;5.60;;
44438;SDS011;30145;48.874;10.186;2023-06-22T10:54:57;14.27;;;5.85;;
44438;SDS011;30145;48.874;10.186;2023-06-22T10:57:24;9.75;;;5.05;;
44438;SDS011;30145;48.874;10.186;2023-06-22T10:59:51;14.18;;;5.85;;
44438;SDS011;30145;48.874;10.186;2023-06-22T11:02:18;10.50;;;5.63;;
44438;SDS011;30145;48.874;10.186;2023-06-22T11:04:45;10.75;;;5.40;;
44438;SDS011;30145;48.874;10.186;2023-06-22T11:07:14;13.02;;;5.80;;
44438;SDS011;30145;48.874;10.186;2023-06-22T11:09:45;9.88;;;5.28;;
44438;SDS011;30145;48.874;10.186;2023-06-22T11:12:12;11.98;;;5.32;;
44438;SDS011;30145;48.874;10.186;2023-06-22T11:14:39;10.50;;;4.97;;
44438;SDS011;30145;48.874;10.186;2023-06-22T11:17:06;12.15;;;5.13;;
44438;SDS011;30145;48.874;10.186;2023-06-22T11:19:33;9.32;;;5.57;;
44438;SDS011;30145;48.874;10.186;2023-06-22T11:22:00;12.88;;;5.53;;
44438;SDS011;30145;48.874;10.186;2023-06-22T11:24:27;9.95;;;5.13;;
44438;SDS011;30145;48.874;10.186;2023-06-22T11:26:54;10.07;;;5.50;;
44438;SDS011;30145;48.874;10.186;2023-06-22T11:29:22;9.75;;;5.07;;
44438;SDS011;30145;48.874;10.186;2023-06-22T11:31:57;11.18;;;5.15;;
44438;SDS011;30145;48.874;10.186;2023-06-22T11:34:24;12.32;;;5.70;;
44438;SDS011;30145;48.874;10.186;2023-06-22T11:36:52;11.80;;;6.30;;
44438;SDS011;30145;48.874;10.186;2023-06-22T11:39:19;7.80;;;5.40;;
44438;SDS011;30145;48.874;10.186;2023-06-22T11:41:48;11.00;;;5.20;;
44438;SDS011;30145;48.874;10.186;2023-06-22T11:44:15;13.48;;;5.13;;
44438;SDS011;30145;48.874;10.186;2023-06-22T11:46:42;10.38;;;5.22;;
44438;SDS011;30145;48.874;10.186;2023-06-22T11:49:09;8.65;;;5.35;;
44438;SDS011;30145;48.874;10.186;2023-06-22T11:51:36;16.00;;;6.18;;
44438;SDS011;30145;48.874;10.186;2023-06-22T11:54:03;8.07;;;4.65;;
44438;SDS011;30145;48.874;10.186;2023-06-22T11:56:30;12.63;;;4.93;;
44438;SDS011;30145;48.874;10.186;2023-06-22T11:58:58;9.40;;;5.45;;
44438;SDS011;30145;48.874;10.186;2023-06-22T12:01:25;10.52;;;5.43;;
44438;SDS011;30145;48.874;10.186;2023-06-22T12:03:52;9.90;;;5.07;;
44438;SDS011;30145;48.874;10.186;2023-06-22T12:06:19;12.15;;;5.53;;
44438;SDS011;30145;48.874;10.186;2023-06-22T12:08:46;11.65;;;5.40;;
44438;SDS011;30145;48.874;10.186;2023-06-22T12:11:13;10.18;;;5.07;;
44438;SDS011;30145;48.874;10.186;2023-06-22T12:13:43;11.50;;;6.05;;
44438;SDS011;30145;48.874;10.186;2023-06-22T12:16:10;9.68;;;5.05;;
44438;SDS011;30145;48.874;10.186;2023-06-22T12:18:38;11.27;;;5.45;;
44438;SDS011;30145;48.874;10.186;2023-06-22T12:21:05;10.18;;;6.00;;
44438;SDS011;30145;48.874;10.186;2023-06-22T12:23:33;14.13;;;5.78;;
44438;SDS011;30145;48.874;10.186;2023-06-22T12:26:00;12.57;;;5.75;;
44438;SDS011;30145;48.874;10.186;2023-06-22T12:28:28;10.43;;;5.63;;
44438;SDS011;30145;48.874;10.186;2023-06-22T12:30:55;10.98;;;5.43;;
44438;SDS011;30145;48.874;10.186;2023-06-22T12:33:22;13.70;;;5.28;;
44438;SDS011;30145;48.874;10.186;2023-06-22T12:35:49;11.27;;;5.25;;
44438;SDS011;30145;48.874;10.186;2023-06-22T12:38:16;15.48;;;6.35;;
44438;SDS011;30145;48.874;10.186;2023-06-22T12:40:43;12.60;;;5.72;;
44438;SDS011;30145;48.874;10.186;2023-06-22T12:43:10;11.93;;;5.80;;
44438;SDS011;30145;48.874;10.186;2023-06-22T12:45:37;18.33;;;5.82;;
44438;SDS011;30145;48.874;10.186;2023-06-22T12:48:04;10.88;;;6.03;;
44438;SDS011;30145;48.874;10.186;2023-06-22T12:50:31;13.00;;;6.78;;
44438;SDS011;30145;48.874;10.186;2023-06-22T12:52:58;11.18;;;5.47;;
44438;SDS011;30145;48.874;10.186;2023-06-22T12:55:26;10.30;;;5.90;;
44438;SDS011;30145;48.874;10.186;2023-06-22T12:57:53;12.40;;;5.65;;
44438;SDS011;30145;48.874;10.186;2023-06-22T13:00:20;11.32;;;5.90;;
44438;SDS011;30145;48.874;10.186;2023-06-22T13:02:47;14.75;;;6.00;;
44438;SDS011;30145;48.874;10.186;2023-06-22T13:05:14;11.95;;;5.95;;
44438;SDS011;30145;48.874;10.186;2023-06-22T13:07:41;14.60;;;5.82;;
44438;SDS011;30145;48.874;10.186;2023-06-22T13:10:09;12.55;;;5.38;;
44438;SDS011;30145;48.874;10.186;2023-06-22T13:12:36;10.70;;;5.90;;
44438;SDS011;30145;48.874;10.186;2023-06-22T13:15:03;14.93;;;7.35;;
44438;SDS011;30145;48.874;10.186;2023-06-22T13:17:30;11.75;;;6.22;;
44438;SDS011;30145;48.874;10.186;2023-06-22T13:19:57;10.40;;;5.70;;
44438;SDS011;30145;48.874;10.186;2023-06-22T13:22:34;11.98;;;6.35;;
44438;SDS011;30145;48.874;10.186;2023-06-22T13:25:09;13.77;;;5.60;;
44438;SDS011;30145;48.874;10.186;2023-06-22T13:27:39;13.35;;;5.82;;
44438;SDS011;30145;48.874;10.186;2023-06-22T13:30:07;10.38;;;5.53;;
44438;SDS011;30145;48.874;10.186;2023-06-22T13:32:35;14.85;;;6.10;;
44438;SDS011;30145;48.874;10.186;2023-06-22T13:35:03;13.45;;;6.07;;
44438;SDS011;30145;48.874;10.186;2023-06-22T13:37:30;9.10;;;5.63;;
44438;SDS011;30145;48.874;10.186;2023-06-22T13:39:57;11.52;;;5.95;;
44438;SDS011;30145;48.874;10.186;2023-06-22T13:42:26;11.18;;;5.88;;
44438;SDS011;30145;48.874;10.186;2023-06-22T13:44:53;13.48;;;6.55;;
44438;SDS011;30145;48.874;10.186;2023-06-22T13:47:20;12.18;;;6.53;;
44438;SDS011;30145;48.874;10.186;2023-06-22T13:49:47;13.10;;;6.80;;
44438;SDS011;30145;48.874;10.186;2023-06-22T13:52:14;11.63;;;6.70;;
44438;SDS011;30145;48.874;10.186;2023-06-22T13:54:41;11.00;;;6.57;;
44438;SDS011;30145;48.874;10.186;2023-06-22T13:57:08;13.30;;;6.03;;
44438;SDS011;30145;48.874;10.186;2023-06-22T13:59:35;10.68;;;6.40;;
44438;SDS011;30145;48.874;10.186;2023-06-22T14:02:02;9.50;;;6.15;;
44438;SDS011;30145;48.874;10.186;2023-06-22T14:04:29;9.90;;;5.88;;
44438;SDS011;30145;48.874;10.186;2023-06-22T14:06:56;9.25;;;5.47;;
44438;SDS011;30145;48.874;10.186;2023-06-22T14:09:23;13.65;;;6.15;;
44438;SDS011;30145;48.874;10.186;2023-06-22T14:11:50;13.70;;;6.28;;
44438;SDS011;30145;48.874;10.186;2023-06-22T14:14:17;16.13;;;6.30;;
44438;SDS011;30145;48.874;10.186;2023-06-22T14:16:44;15.35;;;6.22;;
44438;SDS011;30145;48.874;10.186;2023-06-22T14:19:11;10.73;;;6.00;;
44438;SDS011;30145;48.874;10.186;2023-06-22T14:21:38;15.52;;;5.53;;
44438;SDS011;30145;48.874;10.186;2023-06-22T14:24:05;12.60;;;5.68;;
44438;SDS011;30145;48.874;10.186;2023-06-22T14:26:32;14.63;;;6.22;;
44438;SDS011;30145;48.874;10.186;2023-06-22T14:28:59;12.35;;;6.15;;
44438;SDS011;30145;48.874;10.186;2023-06-22T14:31:26;8.93;;;5.85;;
44438;SDS011;30145;48.874;10.186;2023-06-22T14:33:53;13.23;;;6.00;;
44438;SDS011;30145;48.874;10.186;2023-06-22T14:36:20;13.60;;;6.65;;